sensor_id;sensor_type;location;lat;lon;timestamp;temperature;humidity
14908;DHT22;7545;52.092;7.006;2023-06-14T00:01:39;21.30;82.30
14908;DHT22;7545;52.092;7.006;2023-06-14T00:04:04;21.30;82.80
14908;DHT22;7545;52.092;7.006;2023-06-14T00:06:34;21.30;82.80
14908;DHT22;7545;52.092;7.006;2023-06-14T00:08:59;21.20;83.30
14908;DHT22;7545;52.092;7.006;2023-06-14T00:11:25;21.20;83.30
14908;DHT22;7545;52.092;7.006;2023-06-14T00:13:52;21.20;83.30
14908;DHT22;7545;52.092;7.006;2023-06-14T00:16:18;21.10;83.50
14908;DHT22;7545;52.092;7.006;2023-06-14T00:18:45;21.10;83.80
14908;DHT22;7545;52.092;7.006;2023-06-14T00:21:11;21.10;83.90
14908;DHT22;7545;52.092;7.006;2023-06-14T00:23:37;21.10;84.00
14908;DHT22;7545;52.092;7.006;2023-06-14T00:26:03;21.00;84.10
14908;DHT22;7545;52.092;7.006;2023-06-14T00:28:29;21.00;84.10
14908;DHT22;7545;52.092;7.006;2023-06-14T00:30:54;20.90;84.70
14908;DHT22;7545;52.092;7.006;2023-06-14T00:33:20;20.90;84.70
14908;DHT22;7545;52.092;7.006;2023-06-14T00:35:46;20.90;84.80
14908;DHT22;7545;52.092;7.006;2023-06-14T00:38:12;20.80;85.00
14908;DHT22;7545;52.092;7.006;2023-06-14T00:40:38;20.80;85.40
14908;DHT22;7545;52.092;7.006;2023-06-14T00:43:03;20.80;85.40
14908;DHT22;7545;52.092;7.006;2023-06-14T00:45:29;20.70;85.60
14908;DHT22;7545;52.092;7.006;2023-06-14T00:47:56;20.70;85.90
14908;DHT22;7545;52.092;7.006;2023-06-14T00:50:23;20.70;85.80
14908;DHT22;7545;52.092;7.006;2023-06-14T00:52:49;20.70;85.70
14908;DHT22;7545;52.092;7.006;2023-06-14T00:55:15;20.70;85.90
14908;DHT22;7545;52.092;7.006;2023-06-14T00:57:40;20.60;85.90
14908;DHT22;7545;52.092;7.006;2023-06-14T01:00:07;20.60;86.00
14908;DHT22;7545;52.092;7.006;2023-06-14T01:02:38;20.60;86.00
14908;DHT22;7545;52.092;7.006;2023-06-14T01:05:05;20.50;86.30
14908;DHT22;7545;52.092;7.006;2023-06-14T01:07:40;20.50;86.60
14908;DHT22;7545;52.092;7.006;2023-06-14T01:10:31;20.50;86.70
14908;DHT22;7545;52.092;7.006;2023-06-14T01:13:21;20.40;87.10
14908;DHT22;7545;52.092;7.006;2023-06-14T01:15:50;20.40;87.30
14908;DHT22;7545;52.092;7.006;2023-06-14T01:18:16;20.30;87.30
14908;DHT22;7545;52.092;7.006;2023-06-14T01:20:46;20.30;87.20
14908;DHT22;7545;52.092;7.006;2023-06-14T01:23:21;20.30;87.50
14908;DHT22;7545;52.092;7.006;2023-06-14T01:25:48;20.20;87.70
14908;DHT22;7545;52.092;7.006;2023-06-14T01:28:19;20.20;87.70
14908;DHT22;7545;52.092;7.006;2023-06-14T01:30:48;20.20;88.60
14908;DHT22;7545;52.092;7.006;2023-06-14T01:33:17;20.20;88.10
14908;DHT22;7545;52.092;7.006;2023-06-14T01:35:49;20.20;88.20
14908;DHT22;7545;52.092;7.006;2023-06-14T01:38:20;20.10;88.50
14908;DHT22;7545;52.092;7.006;2023-06-14T01:40:47;20.10;88.90
14908;DHT22;7545;52.092;7.006;2023-06-14T01:43:13;20.10;89.00
14908;DHT22;7545;52.092;7.006;2023-06-14T01:45:41;20.00;89.10
14908;DHT22;7545;52.092;7.006;2023-06-14T01:48:07;20.00;89.30
14908;DHT22;7545;52.092;7.006;2023-06-14T01:50:34;19.90;89.50
14908;DHT22;7545;52.092;7.006;2023-06-14T01:53:00;19.90;89.70
14908;DHT22;7545;52.092;7.006;2023-06-14T01:55:26;19.90;89.90
14908;DHT22;7545;52.092;7.006;2023-06-14T01:57:51;19.90;90.00
14908;DHT22;7545;52.092;7.006;2023-06-14T02:00:17;19.80;90.10
14908;DHT22;7545;52.092;7.006;2023-06-14T02:02:44;19.80;90.10
14908;DHT22;7545;52.092;7.006;2023-06-14T02:05:10;19.70;90.20
14908;DHT22;7545;52.092;7.006;2023-06-14T02:07:36;19.70;90.40
14908;DHT22;7545;52.092;7.006;2023-06-14T02:10:02;19.70;90.40
14908;DHT22;7545;52.092;7.006;2023-06-14T02:12:28;19.70;90.40
14908;DHT22;7545;52.092;7.006;2023-06-14T02:14:53;19.60;90.50
14908;DHT22;7545;52.092;7.006;2023-06-14T02:17:19;19.60;90.60
14908;DHT22;7545;52.092;7.006;2023-06-14T02:19:45;19.60;90.70
14908;DHT22;7545;52.092;7.006;2023-06-14T02:22:11;19.50;90.80
14908;DHT22;7545;52.092;7.006;2023-06-14T02:24:37;19.50;90.80
14908;DHT22;7545;52.092;7.006;2023-06-14T02:27:02;19.50;90.90
14908;DHT22;7545;52.092;7.006;2023-06-14T02:29:29;19.40;91.00
14908;DHT22;7545;52.092;7.006;2023-06-14T02:31:54;19.40;91.10
14908;DHT22;7545;52.092;7.006;2023-06-14T02:34:20;19.40;91.20
14908;DHT22;7545;52.092;7.006;2023-06-14T02:36:47;19.30;91.10
14908;DHT22;7545;52.092;7.006;2023-06-14T02:39:13;19.30;91.20
14908;DHT22;7545;52.092;7.006;2023-06-14T02:41:39;19.20;91.10
14908;DHT22;7545;52.092;7.006;2023-06-14T02:44:06;19.30;91.20
14908;DHT22;7545;52.092;7.006;2023-06-14T02:46:32;19.30;91.30
14908;DHT22;7545;52.092;7.006;2023-06-14T02:48:59;19.20;91.20
14908;DHT22;7545;52.092;7.006;2023-06-14T02:51:25;19.20;91.40
14908;DHT22;7545;52.092;7.006;2023-06-14T02:53:51;19.20;91.40
14908;DHT22;7545;52.092;7.006;2023-06-14T02:56:16;19.10;91.40
14908;DHT22;7545;52.092;7.006;2023-06-14T02:58:44;19.10;91.50
14908;DHT22;7545;52.092;7.006;2023-06-14T03:01:10;19.10;91.40
14908;DHT22;7545;52.092;7.006;2023-06-14T03:03:39;19.10;91.60
14908;DHT22;7545;52.092;7.006;2023-06-14T03:06:04;19.00;91.70
14908;DHT22;7545;52.092;7.006;2023-06-14T03:08:31;19.00;91.80
14908;DHT22;7545;52.092;7.006;2023-06-14T03:11:03;18.90;91.80
14908;DHT22;7545;52.092;7.006;2023-06-14T03:13:30;18.90;91.90
14908;DHT22;7545;52.092;7.006;2023-06-14T03:15:57;18.90;92.10
14908;DHT22;7545;52.092;7.006;2023-06-14T03:18:23;18.90;92.00
14908;DHT22;7545;52.092;7.006;2023-06-14T03:20:49;18.80;92.00
14908;DHT22;7545;52.092;7.006;2023-06-14T03:23:16;18.80;92.10
14908;DHT22;7545;52.092;7.006;2023-06-14T03:25:41;18.80;92.20
14908;DHT22;7545;52.092;7.006;2023-06-14T03:28:07;18.80;92.30
14908;DHT22;7545;52.092;7.006;2023-06-14T03:30:33;18.80;92.40
14908;DHT22;7545;52.092;7.006;2023-06-14T03:33:07;18.80;92.40
14908;DHT22;7545;52.092;7.006;2023-06-14T03:35:36;18.90;92.40
14908;DHT22;7545;52.092;7.006;2023-06-14T03:38:02;18.90;92.50
14908;DHT22;7545;52.092;7.006;2023-06-14T03:40:29;18.90;92.50
14908;DHT22;7545;52.092;7.006;2023-06-14T03:42:55;18.90;92.50
14908;DHT22;7545;52.092;7.006;2023-06-14T03:45:21;18.90;92.60
14908;DHT22;7545;52.092;7.006;2023-06-14T03:47:46;18.90;92.70
14908;DHT22;7545;52.092;7.006;2023-06-14T03:50:12;19.00;92.60
14908;DHT22;7545;52.092;7.006;2023-06-14T03:52:38;19.00;92.60
14908;DHT22;7545;52.092;7.006;2023-06-14T03:55:04;18.90;92.60
14908;DHT22;7545;52.092;7.006;2023-06-14T03:57:30;18.90;92.50
14908;DHT22;7545;52.092;7.006;2023-06-14T03:59:56;18.90;92.50
14908;DHT22;7545;52.092;7.006;2023-06-14T04:02:21;18.90;92.60
14908;DHT22;7545;52.092;7.006;2023-06-14T04:04:48;18.80;92.80
14908;DHT22;7545;52.092;7.006;2023-06-14T04:07:17;18.80;92.90
14908;DHT22;7545;52.092;7.006;2023-06-14T04:09:46;18.80;93.00
14908;DHT22;7545;52.092;7.006;2023-06-14T04:12:11;18.70;93.20
14908;DHT22;7545;52.092;7.006;2023-06-14T04:14:38;18.70;93.40
14908;DHT22;7545;52.092;7.006;2023-06-14T04:17:04;18.70;93.50
14908;DHT22;7545;52.092;7.006;2023-06-14T04:19:30;18.70;93.70
14908;DHT22;7545;52.092;7.006;2023-06-14T04:21:56;18.70;93.60
14908;DHT22;7545;52.092;7.006;2023-06-14T04:24:22;18.70;93.60
14908;DHT22;7545;52.092;7.006;2023-06-14T04:26:49;18.80;94.00
14908;DHT22;7545;52.092;7.006;2023-06-14T04:29:17;18.70;94.00
14908;DHT22;7545;52.092;7.006;2023-06-14T04:31:45;18.70;94.00
14908;DHT22;7545;52.092;7.006;2023-06-14T04:34:12;18.70;94.00
14908;DHT22;7545;52.092;7.006;2023-06-14T04:36:42;18.70;94.00
14908;DHT22;7545;52.092;7.006;2023-06-14T04:39:17;18.70;94.10
14908;DHT22;7545;52.092;7.006;2023-06-14T04:41:43;18.80;94.20
14908;DHT22;7545;52.092;7.006;2023-06-14T04:44:09;18.80;94.10
14908;DHT22;7545;52.092;7.006;2023-06-14T04:46:35;18.80;94.30
14908;DHT22;7545;52.092;7.006;2023-06-14T04:49:09;18.70;94.30
14908;DHT22;7545;52.092;7.006;2023-06-14T04:51:35;18.70;94.50
14908;DHT22;7545;52.092;7.006;2023-06-14T04:54:02;18.80;94.60
14908;DHT22;7545;52.092;7.006;2023-06-14T04:56:28;18.80;94.50
14908;DHT22;7545;52.092;7.006;2023-06-14T04:58:54;18.80;94.60
14908;DHT22;7545;52.092;7.006;2023-06-14T05:01:21;18.80;94.90
14908;DHT22;7545;52.092;7.006;2023-06-14T05:03:48;18.80;94.90
14908;DHT22;7545;52.092;7.006;2023-06-14T05:06:15;18.90;95.00
14908;DHT22;7545;52.092;7.006;2023-06-14T05:08:41;18.90;95.00
14908;DHT22;7545;52.092;7.006;2023-06-14T05:11:07;18.90;95.50
14908;DHT22;7545;52.092;7.006;2023-06-14T05:13:32;18.90;95.30
14908;DHT22;7545;52.092;7.006;2023-06-14T05:15:59;18.90;95.20
14908;DHT22;7545;52.092;7.006;2023-06-14T05:18:26;19.00;95.80
14908;DHT22;7545;52.092;7.006;2023-06-14T05:20:51;19.00;95.30
14908;DHT22;7545;52.092;7.006;2023-06-14T05:39:11;19.30;94.90
14908;DHT22;7545;52.092;7.006;2023-06-14T05:41:37;19.40;95.10
14908;DHT22;7545;52.092;7.006;2023-06-14T05:44:02;19.40;95.20
14908;DHT22;7545;52.092;7.006;2023-06-14T05:46:28;19.40;95.10
14908;DHT22;7545;52.092;7.006;2023-06-14T05:48:54;19.40;95.10
14908;DHT22;7545;52.092;7.006;2023-06-14T05:51:21;19.40;95.10
14908;DHT22;7545;52.092;7.006;2023-06-14T05:53:47;19.40;95.30
14908;DHT22;7545;52.092;7.006;2023-06-14T05:56:14;19.40;95.00
14908;DHT22;7545;52.092;7.006;2023-06-14T05:58:40;19.40;95.00
14908;DHT22;7545;52.092;7.006;2023-06-14T06:01:06;19.50;95.20
14908;DHT22;7545;52.092;7.006;2023-06-14T06:03:31;19.50;94.90
14908;DHT22;7545;52.092;7.006;2023-06-14T06:05:58;19.50;94.50
14908;DHT22;7545;52.092;7.006;2023-06-14T06:08:23;19.50;94.30
14908;DHT22;7545;52.092;7.006;2023-06-14T06:10:49;19.60;94.20
14908;DHT22;7545;52.092;7.006;2023-06-14T06:13:15;19.60;94.40
14908;DHT22;7545;52.092;7.006;2023-06-14T06:15:41;19.60;94.60
14908;DHT22;7545;52.092;7.006;2023-06-14T06:18:06;19.70;94.60
14908;DHT22;7545;52.092;7.006;2023-06-14T06:20:32;19.70;94.50
14908;DHT22;7545;52.092;7.006;2023-06-14T06:22:58;19.70;94.20
14908;DHT22;7545;52.092;7.006;2023-06-14T06:25:24;19.80;94.10
14908;DHT22;7545;52.092;7.006;2023-06-14T06:27:51;19.80;94.00
14908;DHT22;7545;52.092;7.006;2023-06-14T06:30:17;19.90;94.20
14908;DHT22;7545;52.092;7.006;2023-06-14T06:32:43;19.90;94.10
14908;DHT22;7545;52.092;7.006;2023-06-14T06:35:09;20.00;94.10
14908;DHT22;7545;52.092;7.006;2023-06-14T06:37:36;20.00;93.90
14908;DHT22;7545;52.092;7.006;2023-06-14T06:40:02;20.00;93.80
14908;DHT22;7545;52.092;7.006;2023-06-14T06:42:31;20.00;93.90
14908;DHT22;7545;52.092;7.006;2023-06-14T06:44:57;20.10;94.00
14908;DHT22;7545;52.092;7.006;2023-06-14T06:47:22;20.20;93.80
14908;DHT22;7545;52.092;7.006;2023-06-14T06:49:48;20.20;93.90
14908;DHT22;7545;52.092;7.006;2023-06-14T06:52:14;20.20;93.80
14908;DHT22;7545;52.092;7.006;2023-06-14T06:54:39;20.30;94.00
14908;DHT22;7545;52.092;7.006;2023-06-14T06:57:05;20.30;93.70
14908;DHT22;7545;52.092;7.006;2023-06-14T06:59:31;20.30;93.70
14908;DHT22;7545;52.092;7.006;2023-06-14T07:01:57;20.40;93.80
14908;DHT22;7545;52.092;7.006;2023-06-14T07:04:23;20.40;93.70
14908;DHT22;7545;52.092;7.006;2023-06-14T07:06:48;20.50;93.80
14908;DHT22;7545;52.092;7.006;2023-06-14T07:09:14;20.50;93.60
14908;DHT22;7545;52.092;7.006;2023-06-14T07:11:42;20.50;93.20
14908;DHT22;7545;52.092;7.006;2023-06-14T07:14:08;20.60;93.00
14908;DHT22;7545;52.092;7.006;2023-06-14T07:16:33;20.60;93.20
14908;DHT22;7545;52.092;7.006;2023-06-14T07:18:59;20.60;92.90
14908;DHT22;7545;52.092;7.006;2023-06-14T07:21:26;20.60;92.00
14908;DHT22;7545;52.092;7.006;2023-06-14T07:23:52;20.70;91.80
14908;DHT22;7545;52.092;7.006;2023-06-14T07:26:18;20.70;91.90
14908;DHT22;7545;52.092;7.006;2023-06-14T07:28:44;20.80;92.30
14908;DHT22;7545;52.092;7.006;2023-06-14T07:31:16;20.80;92.10
14908;DHT22;7545;52.092;7.006;2023-06-14T07:33:42;20.80;91.90
14908;DHT22;7545;52.092;7.006;2023-06-14T07:36:08;20.80;91.80
14908;DHT22;7545;52.092;7.006;2023-06-14T07:38:34;20.90;91.50
14908;DHT22;7545;52.092;7.006;2023-06-14T07:41:00;20.90;91.50
14908;DHT22;7545;52.092;7.006;2023-06-14T07:43:26;21.00;91.50
14908;DHT22;7545;52.092;7.006;2023-06-14T07:45:51;21.00;91.10
14908;DHT22;7545;52.092;7.006;2023-06-14T07:48:18;21.00;91.00
14908;DHT22;7545;52.092;7.006;2023-06-14T07:50:44;21.10;91.10
14908;DHT22;7545;52.092;7.006;2023-06-14T07:53:09;21.10;91.10
14908;DHT22;7545;52.092;7.006;2023-06-14T07:55:35;21.10;91.20
14908;DHT22;7545;52.092;7.006;2023-06-14T07:58:03;21.20;91.20
14908;DHT22;7545;52.092;7.006;2023-06-14T08:00:28;21.30;91.10
14908;DHT22;7545;52.092;7.006;2023-06-14T08:03:00;21.30;91.00
14908;DHT22;7545;52.092;7.006;2023-06-14T08:05:26;21.30;90.80
14908;DHT22;7545;52.092;7.006;2023-06-14T08:07:52;21.40;90.80
14908;DHT22;7545;52.092;7.006;2023-06-14T08:10:18;21.40;90.30
14908;DHT22;7545;52.092;7.006;2023-06-14T08:12:44;21.40;90.20
14908;DHT22;7545;52.092;7.006;2023-06-14T08:15:10;21.40;90.20
14908;DHT22;7545;52.092;7.006;2023-06-14T08:17:35;21.40;90.20
14908;DHT22;7545;52.092;7.006;2023-06-14T08:20:02;21.50;89.80
14908;DHT22;7545;52.092;7.006;2023-06-14T08:22:30;21.60;89.60
14908;DHT22;7545;52.092;7.006;2023-06-14T08:24:57;21.70;88.60
14908;DHT22;7545;52.092;7.006;2023-06-14T08:27:23;21.70;87.20
14908;DHT22;7545;52.092;7.006;2023-06-14T08:29:49;21.70;86.10
14908;DHT22;7545;52.092;7.006;2023-06-14T08:32:15;21.80;86.20
14908;DHT22;7545;52.092;7.006;2023-06-14T08:34:40;21.80;86.40
14908;DHT22;7545;52.092;7.006;2023-06-14T08:37:06;21.90;86.00
14908;DHT22;7545;52.092;7.006;2023-06-14T08:39:33;21.90;85.80
14908;DHT22;7545;52.092;7.006;2023-06-14T08:41:58;22.00;85.40
14908;DHT22;7545;52.092;7.006;2023-06-14T08:44:26;22.00;85.90
14908;DHT22;7545;52.092;7.006;2023-06-14T08:46:52;22.00;85.20
14908;DHT22;7545;52.092;7.006;2023-06-14T08:49:21;22.00;85.00
14908;DHT22;7545;52.092;7.006;2023-06-14T08:51:48;22.20;85.70
14908;DHT22;7545;52.092;7.006;2023-06-14T08:54:17;22.20;85.80
14908;DHT22;7545;52.092;7.006;2023-06-14T08:56:46;22.30;86.00
14908;DHT22;7545;52.092;7.006;2023-06-14T08:59:13;22.40;86.30
14908;DHT22;7545;52.092;7.006;2023-06-14T09:01:40;22.40;86.80
14908;DHT22;7545;52.092;7.006;2023-06-14T09:04:06;22.50;86.10
14908;DHT22;7545;52.092;7.006;2023-06-14T09:06:32;22.60;85.80
14908;DHT22;7545;52.092;7.006;2023-06-14T09:08:58;22.60;85.70
14908;DHT22;7545;52.092;7.006;2023-06-14T09:11:24;22.60;86.50
14908;DHT22;7545;52.092;7.006;2023-06-14T09:13:51;22.70;85.70
14908;DHT22;7545;52.092;7.006;2023-06-14T09:16:17;22.70;85.70
14908;DHT22;7545;52.092;7.006;2023-06-14T09:18:45;22.80;85.90
14908;DHT22;7545;52.092;7.006;2023-06-14T09:21:14;22.80;85.20
14908;DHT22;7545;52.092;7.006;2023-06-14T09:23:42;22.90;85.50
14908;DHT22;7545;52.092;7.006;2023-06-14T09:26:09;22.90;84.80
14908;DHT22;7545;52.092;7.006;2023-06-14T09:28:35;23.00;84.50
14908;DHT22;7545;52.092;7.006;2023-06-14T09:31:01;23.00;84.80
14908;DHT22;7545;52.092;7.006;2023-06-14T09:33:27;23.00;84.90
14908;DHT22;7545;52.092;7.006;2023-06-14T09:35:54;23.00;84.10
14908;DHT22;7545;52.092;7.006;2023-06-14T09:38:20;23.10;84.80
14908;DHT22;7545;52.092;7.006;2023-06-14T09:40:46;23.20;85.50
14908;DHT22;7545;52.092;7.006;2023-06-14T09:43:11;23.30;85.30
14908;DHT22;7545;52.092;7.006;2023-06-14T09:45:38;23.40;84.80
14908;DHT22;7545;52.092;7.006;2023-06-14T09:48:06;23.50;85.20
14908;DHT22;7545;52.092;7.006;2023-06-14T09:50:33;23.50;84.90
14908;DHT22;7545;52.092;7.006;2023-06-14T09:53:03;23.60;84.80
14908;DHT22;7545;52.092;7.006;2023-06-14T09:55:31;23.70;85.30
14908;DHT22;7545;52.092;7.006;2023-06-14T09:58:00;23.80;85.00
14908;DHT22;7545;52.092;7.006;2023-06-14T10:00:32;23.90;85.00
14908;DHT22;7545;52.092;7.006;2023-06-14T10:03:05;23.90;84.70
14908;DHT22;7545;52.092;7.006;2023-06-14T10:05:32;24.00;84.90
14908;DHT22;7545;52.092;7.006;2023-06-14T10:08:04;24.00;85.20
14908;DHT22;7545;52.092;7.006;2023-06-14T10:10:31;24.10;85.30
14908;DHT22;7545;52.092;7.006;2023-06-14T10:12:56;24.20;85.50
14908;DHT22;7545;52.092;7.006;2023-06-14T10:15:30;24.30;85.20
14908;DHT22;7545;52.092;7.006;2023-06-14T10:18:15;24.30;85.20
14908;DHT22;7545;52.092;7.006;2023-06-14T10:23:44;24.50;83.40
14908;DHT22;7545;52.092;7.006;2023-06-14T10:26:21;24.50;83.10
14908;DHT22;7545;52.092;7.006;2023-06-14T10:29:00;24.60;82.70
14908;DHT22;7545;52.092;7.006;2023-06-14T10:31:47;24.60;81.50
14908;DHT22;7545;52.092;7.006;2023-06-14T10:34:27;24.70;81.60
14908;DHT22;7545;52.092;7.006;2023-06-14T10:37:13;24.80;82.00
14908;DHT22;7545;52.092;7.006;2023-06-14T10:39:40;24.90;82.20
14908;DHT22;7545;52.092;7.006;2023-06-14T10:42:07;24.90;80.90
14908;DHT22;7545;52.092;7.006;2023-06-14T10:44:33;25.00;80.50
14908;DHT22;7545;52.092;7.006;2023-06-14T10:47:00;25.10;80.50
14908;DHT22;7545;52.092;7.006;2023-06-14T10:49:43;25.10;80.80
14908;DHT22;7545;52.092;7.006;2023-06-14T10:52:14;25.20;81.10
14908;DHT22;7545;52.092;7.006;2023-06-14T10:55:01;25.20;80.90
14908;DHT22;7545;52.092;7.006;2023-06-14T10:57:27;25.30;80.20
14908;DHT22;7545;52.092;7.006;2023-06-14T10:59:53;25.40;80.40
14908;DHT22;7545;52.092;7.006;2023-06-14T11:04:52;25.50;80.00
14908;DHT22;7545;52.092;7.006;2023-06-14T11:10:36;25.60;80.40
14908;DHT22;7545;52.092;7.006;2023-06-14T11:13:03;25.80;80.20
14908;DHT22;7545;52.092;7.006;2023-06-14T11:15:33;25.90;80.00
14908;DHT22;7545;52.092;7.006;2023-06-14T11:18:07;25.90;79.50
14908;DHT22;7545;52.092;7.006;2023-06-14T11:20:34;25.90;80.00
14908;DHT22;7545;52.092;7.006;2023-06-14T11:23:01;26.00;80.30
14908;DHT22;7545;52.092;7.006;2023-06-14T11:25:27;26.00;81.10
14908;DHT22;7545;52.092;7.006;2023-06-14T11:27:55;26.10;80.50
14908;DHT22;7545;52.092;7.006;2023-06-14T11:30:22;26.20;80.30
14908;DHT22;7545;52.092;7.006;2023-06-14T11:32:48;26.20;80.20
14908;DHT22;7545;52.092;7.006;2023-06-14T11:35:15;26.40;79.80
14908;DHT22;7545;52.092;7.006;2023-06-14T11:37:41;26.50;79.20
14908;DHT22;7545;52.092;7.006;2023-06-14T11:40:07;26.60;78.20
14908;DHT22;7545;52.092;7.006;2023-06-14T11:42:35;26.60;77.10
14908;DHT22;7545;52.092;7.006;2023-06-14T11:45:02;26.70;76.90
14908;DHT22;7545;52.092;7.006;2023-06-14T11:47:35;26.70;76.50
14908;DHT22;7545;52.092;7.006;2023-06-14T11:50:02;26.70;76.30
14908;DHT22;7545;52.092;7.006;2023-06-14T11:52:28;26.70;76.00
14908;DHT22;7545;52.092;7.006;2023-06-14T11:54:54;26.70;77.00
14908;DHT22;7545;52.092;7.006;2023-06-14T11:57:20;26.80;77.10
14908;DHT22;7545;52.092;7.006;2023-06-14T11:59:46;26.90;76.20
14908;DHT22;7545;52.092;7.006;2023-06-14T12:02:16;26.90;75.50
14908;DHT22;7545;52.092;7.006;2023-06-14T12:04:43;27.00;74.50
14908;DHT22;7545;52.092;7.006;2023-06-14T12:07:13;27.10;74.90
14908;DHT22;7545;52.092;7.006;2023-06-14T12:09:41;27.10;75.60
14908;DHT22;7545;52.092;7.006;2023-06-14T12:12:09;27.20;75.20
14908;DHT22;7545;52.092;7.006;2023-06-14T12:14:36;27.20;75.40
14908;DHT22;7545;52.092;7.006;2023-06-14T12:17:05;27.30;75.60
14908;DHT22;7545;52.092;7.006;2023-06-14T12:19:32;27.50;75.70
14908;DHT22;7545;52.092;7.006;2023-06-14T12:21:59;27.60;75.40
14908;DHT22;7545;52.092;7.006;2023-06-14T12:24:29;27.70;75.40
14908;DHT22;7545;52.092;7.006;2023-06-14T12:26:57;27.80;76.00
14908;DHT22;7545;52.092;7.006;2023-06-14T12:29:24;27.70;74.80
14908;DHT22;7545;52.092;7.006;2023-06-14T12:31:49;27.80;75.10
14908;DHT22;7545;52.092;7.006;2023-06-14T12:34:15;27.80;75.00
14908;DHT22;7545;52.092;7.006;2023-06-14T12:36:41;27.90;74.30
14908;DHT22;7545;52.092;7.006;2023-06-14T12:39:10;27.90;74.10
14908;DHT22;7545;52.092;7.006;2023-06-14T12:41:36;28.00;74.10
14908;DHT22;7545;52.092;7.006;2023-06-14T12:44:02;28.00;74.00
14908;DHT22;7545;52.092;7.006;2023-06-14T12:46:30;28.10;74.00
14908;DHT22;7545;52.092;7.006;2023-06-14T12:48:56;28.10;74.20
14908;DHT22;7545;52.092;7.006;2023-06-14T12:51:22;28.10;73.80
14908;DHT22;7545;52.092;7.006;2023-06-14T12:53:49;28.00;73.70
14908;DHT22;7545;52.092;7.006;2023-06-14T12:56:15;28.00;73.70
14908;DHT22;7545;52.092;7.006;2023-06-14T12:58:41;27.90;73.80
14908;DHT22;7545;52.092;7.006;2023-06-14T13:01:07;27.90;74.30
14908;DHT22;7545;52.092;7.006;2023-06-14T13:03:33;27.90;75.10
14908;DHT22;7545;52.092;7.006;2023-06-14T13:06:00;27.90;75.80
14908;DHT22;7545;52.092;7.006;2023-06-14T13:08:26;28.00;75.10
14908;DHT22;7545;52.092;7.006;2023-06-14T13:10:52;28.10;74.80
14908;DHT22;7545;52.092;7.006;2023-06-14T13:13:17;28.20;74.30
14908;DHT22;7545;52.092;7.006;2023-06-14T13:15:43;28.10;73.10
14908;DHT22;7545;52.092;7.006;2023-06-14T13:18:09;28.10;73.60
14908;DHT22;7545;52.092;7.006;2023-06-14T13:20:35;28.20;73.40
14908;DHT22;7545;52.092;7.006;2023-06-14T13:23:00;28.30;73.20
14908;DHT22;7545;52.092;7.006;2023-06-14T13:25:27;28.40;73.20
14908;DHT22;7545;52.092;7.006;2023-06-14T13:27:53;28.50;72.70
14908;DHT22;7545;52.092;7.006;2023-06-14T13:30:18;28.60;73.10
14908;DHT22;7545;52.092;7.006;2023-06-14T13:32:44;28.70;72.80
14908;DHT22;7545;52.092;7.006;2023-06-14T13:35:09;28.70;72.70
14908;DHT22;7545;52.092;7.006;2023-06-14T13:37:35;28.90;72.60
14908;DHT22;7545;52.092;7.006;2023-06-14T13:40:01;28.90;72.50
14908;DHT22;7545;52.092;7.006;2023-06-14T13:42:27;29.00;72.50
14908;DHT22;7545;52.092;7.006;2023-06-14T13:44:52;29.10;72.40
14908;DHT22;7545;52.092;7.006;2023-06-14T13:47:18;29.00;71.70
14908;DHT22;7545;52.092;7.006;2023-06-14T13:49:44;28.90;71.20
14908;DHT22;7545;52.092;7.006;2023-06-14T13:52:09;28.90;71.70
14908;DHT22;7545;52.092;7.006;2023-06-14T13:54:36;28.80;72.20
14908;DHT22;7545;52.092;7.006;2023-06-14T13:57:02;28.90;73.10
14908;DHT22;7545;52.092;7.006;2023-06-14T13:59:27;29.00;73.50
14908;DHT22;7545;52.092;7.006;2023-06-14T14:01:53;29.00;72.80
14908;DHT22;7545;52.092;7.006;2023-06-14T14:04:19;29.00;72.50
14908;DHT22;7545;52.092;7.006;2023-06-14T14:06:44;29.00;72.00
14908;DHT22;7545;52.092;7.006;2023-06-14T14:09:10;28.90;70.00
14908;DHT22;7545;52.092;7.006;2023-06-14T14:11:36;28.80;69.40
14908;DHT22;7545;52.092;7.006;2023-06-14T14:14:05;28.80;70.10
14908;DHT22;7545;52.092;7.006;2023-06-14T14:16:30;28.80;70.20
14908;DHT22;7545;52.092;7.006;2023-06-14T14:18:56;28.90;70.30
14908;DHT22;7545;52.092;7.006;2023-06-14T14:21:21;29.00;69.90
14908;DHT22;7545;52.092;7.006;2023-06-14T14:23:47;28.90;69.60
14908;DHT22;7545;52.092;7.006;2023-06-14T14:26:13;28.90;70.50
14908;DHT22;7545;52.092;7.006;2023-06-14T14:28:38;29.00;71.50
14908;DHT22;7545;52.092;7.006;2023-06-14T14:31:04;29.10;71.30
14908;DHT22;7545;52.092;7.006;2023-06-14T14:33:30;29.10;71.10
14908;DHT22;7545;52.092;7.006;2023-06-14T14:35:55;29.20;70.70
14908;DHT22;7545;52.092;7.006;2023-06-14T14:38:21;29.20;70.00
14908;DHT22;7545;52.092;7.006;2023-06-14T14:40:47;29.20;70.70
14908;DHT22;7545;52.092;7.006;2023-06-14T14:43:13;29.10;70.50
14908;DHT22;7545;52.092;7.006;2023-06-14T14:45:39;29.20;70.80
14908;DHT22;7545;52.092;7.006;2023-06-14T14:48:05;29.20;71.10
14908;DHT22;7545;52.092;7.006;2023-06-14T14:50:31;29.30;71.10
14908;DHT22;7545;52.092;7.006;2023-06-14T14:52:56;29.30;71.60
14908;DHT22;7545;52.092;7.006;2023-06-14T14:55:22;29.30;71.70
14908;DHT22;7545;52.092;7.006;2023-06-14T14:57:47;29.30;71.30
14908;DHT22;7545;52.092;7.006;2023-06-14T15:00:14;29.20;71.10
14908;DHT22;7545;52.092;7.006;2023-06-14T15:02:39;29.20;71.00
14908;DHT22;7545;52.092;7.006;2023-06-14T15:05:05;29.20;71.70
14908;DHT22;7545;52.092;7.006;2023-06-14T15:07:31;29.20;72.00
14908;DHT22;7545;52.092;7.006;2023-06-14T15:09:59;29.10;71.80
14908;DHT22;7545;52.092;7.006;2023-06-14T15:12:24;29.10;71.90
14908;DHT22;7545;52.092;7.006;2023-06-14T15:14:50;29.00;71.70
14908;DHT22;7545;52.092;7.006;2023-06-14T15:17:17;28.90;71.80
14908;DHT22;7545;52.092;7.006;2023-06-14T15:19:44;28.90;71.80
14908;DHT22;7545;52.092;7.006;2023-06-14T15:22:10;28.80;72.20
14908;DHT22;7545;52.092;7.006;2023-06-14T15:24:36;28.80;72.90
14908;DHT22;7545;52.092;7.006;2023-06-14T15:27:01;28.80;72.60
14908;DHT22;7545;52.092;7.006;2023-06-14T15:29:28;28.80;72.40
14908;DHT22;7545;52.092;7.006;2023-06-14T15:31:53;28.70;72.40
14908;DHT22;7545;52.092;7.006;2023-06-14T15:34:20;28.80;72.90
14908;DHT22;7545;52.092;7.006;2023-06-14T15:36:46;28.80;72.90
14908;DHT22;7545;52.092;7.006;2023-06-14T15:39:11;28.80;72.90
14908;DHT22;7545;52.092;7.006;2023-06-14T15:41:37;28.90;73.40
14908;DHT22;7545;52.092;7.006;2023-06-14T15:44:03;28.80;72.70
14908;DHT22;7545;52.092;7.006;2023-06-14T15:46:29;28.50;72.40
14908;DHT22;7545;52.092;7.006;2023-06-14T15:48:54;28.30;73.20
14908;DHT22;7545;52.092;7.006;2023-06-14T15:51:20;28.20;74.20
14908;DHT22;7545;52.092;7.006;2023-06-14T15:53:46;28.00;74.10
14908;DHT22;7545;52.092;7.006;2023-06-14T15:56:11;28.00;74.40
14908;DHT22;7545;52.092;7.006;2023-06-14T15:58:37;28.10;74.80
14908;DHT22;7545;52.092;7.006;2023-06-14T16:01:02;28.10;74.80
14908;DHT22;7545;52.092;7.006;2023-06-14T16:03:28;28.00;74.70
14908;DHT22;7545;52.092;7.006;2023-06-14T16:05:53;28.00;74.70
14908;DHT22;7545;52.092;7.006;2023-06-14T16:08:19;27.90;74.50